sensor_id;sensor_type;location;lat;lon;timestamp;pressure;altitude;pressure_sealevel;temperature;humidity
23341;BME280;12239;53.404;23.492;2023-09-08T10:12:04;76234.33;;;-147.78;41.99
23341;BME280;12239;53.404;23.492;2023-09-08T10:14:37;76238.84;;;-147.78;42.58
23341;BME280;12239;53.404;23.492;2023-09-08T10:17:11;76232.68;;;-147.78;42.83
23341;BME280;12239;53.404;23.492;2023-09-08T10:19:44;76224.89;;;-147.78;42.23
23341;BME280;12239;53.404;23.492;2023-09-08T10:22:20;76218.73;;;-147.78;42.56
23341;BME280;12239;53.404;23.492;2023-09-08T10:24:54;76198.66;;;-147.78;42.89
23341;BME280;12239;53.404;23.492;2023-09-08T10:27:45;76178.98;;;-147.78;42.18
23341;BME280;12239;53.404;23.492;2023-09-08T10:30:35;76178.58;;;-147.78;40.84
23341;BME280;12239;53.404;23.492;2023-09-08T10:33:25;76188.82;;;-147.78;41.01
23341;BME280;12239;53.404;23.492;2023-09-08T10:35:55;76187.17;;;-147.78;41.31
23341;BME280;12239;53.404;23.492;2023-09-08T10:38:31;76181.44;;;-147.78;41.58
23341;BME280;12239;53.404;23.492;2023-09-08T10:43:44;76172.83;;;-147.78;39.91
23341;BME280;12239;53.404;23.492;2023-09-08T10:46:20;76166.27;;;-147.78;40.64
23341;BME280;12239;53.404;23.492;2023-09-08T10:48:50;76155.61;;;-147.78;39.87
23341;BME280;12239;53.404;23.492;2023-09-08T10:51:21;76152.34;;;-147.78;40.23
23341;BME280;12239;53.404;23.492;2023-09-08T10:53:51;76146.59;;;-147.78;40.35
23341;BME280;12239;53.404;23.492;2023-09-08T10:56:21;76136.75;;;-147.78;40.04
23341;BME280;12239;53.404;23.492;2023-09-08T10:58:52;76137.98;;;-147.78;40.28
23341;BME280;12239;53.404;23.492;2023-09-08T11:01:21;76136.75;;;-147.78;40.11
23341;BME280;12239;53.404;23.492;2023-09-08T11:03:57;76135.11;;;-147.78;39.72
23341;BME280;12239;53.404;23.492;2023-09-08T11:06:32;76128.15;;;-147.78;39.81
23341;BME280;12239;53.404;23.492;2023-09-08T11:09:21;76117.08;;;-147.78;39.63
23341;BME280;12239;53.404;23.492;2023-09-08T11:11:54;76114.20;;;-147.78;40.01
23341;BME280;12239;53.404;23.492;2023-09-08T11:14:26;76109.70;;;-147.78;40.07
23341;BME280;12239;53.404;23.492;2023-09-08T11:17:00;76107.65;;;-147.78;40.32
23341;BME280;12239;53.404;23.492;2023-09-08T11:19:44;76098.23;;;-147.78;40.53
23341;BME280;12239;53.404;23.492;2023-09-08T11:22:25;76093.70;;;-147.78;40.92
23341;BME280;12239;53.404;23.492;2023-09-08T11:24:56;76085.10;;;-147.78;41.01
23341;BME280;12239;53.404;23.492;2023-09-08T11:27:35;76085.10;;;-147.78;39.59
23341;BME280;12239;53.404;23.492;2023-09-08T11:30:10;76078.13;;;-147.78;40.02
23341;BME280;12239;53.404;23.492;2023-09-08T11:32:41;76064.61;;;-147.78;40.26
23341;BME280;12239;53.404;23.492;2023-09-08T11:35:12;76048.61;;;-147.78;40.18
23341;BME280;12239;53.404;23.492;2023-09-08T11:38:04;76038.37;;;-147.78;40.41
23341;BME280;12239;53.404;23.492;2023-09-08T11:40:34;76026.89;;;-147.78;40.01
23341;BME280;12239;53.404;23.492;2023-09-08T11:43:07;76018.69;;;-147.78;39.24
23341;BME280;12239;53.404;23.492;2023-09-08T11:45:57;76012.95;;;-147.78;38.94
23341;BME280;12239;53.404;23.492;2023-09-08T11:48:29;76008.02;;;-147.78;39.26
23341;BME280;12239;53.404;23.492;2023-09-08T11:51:00;76000.65;;;-147.78;39.81
23341;BME280;12239;53.404;23.492;2023-09-08T11:53:30;75999.42;;;-147.78;40.14
23341;BME280;12239;53.404;23.492;2023-09-08T11:56:21;75994.50;;;-147.78;40.13
23341;BME280;12239;53.404;23.492;2023-09-08T11:58:54;75993.27;;;-147.78;39.73
23341;BME280;12239;53.404;23.492;2023-09-08T12:01:25;75984.66;;;-147.78;39.11
23341;BME280;12239;53.404;23.492;2023-09-08T12:03:55;75984.25;;;-147.78;39.20
23341;BME280;12239;53.404;23.492;2023-09-08T12:06:27;75976.05;;;-147.78;38.89
23341;BME280;12239;53.404;23.492;2023-09-08T12:09:01;75973.18;;;-147.78;38.91
23341;BME280;12239;53.404;23.492;2023-09-08T12:11:51;75973.59;;;-147.78;37.63
23341;BME280;12239;53.404;23.492;2023-09-08T12:14:21;75974.00;;;-147.78;38.01
23341;BME280;12239;53.404;23.492;2023-09-08T12:16:54;75970.73;;;-147.78;37.98
23341;BME280;12239;53.404;23.492;2023-09-08T12:19:35;75970.73;;;-147.78;38.40
23341;BME280;12239;53.404;23.492;2023-09-08T12:22:06;75969.48;;;-147.78;38.16
23341;BME280;12239;53.404;23.492;2023-09-08T12:24:48;75966.63;;;-147.78;38.50
23341;BME280;12239;53.404;23.492;2023-09-08T12:27:21;75954.33;;;-147.78;38.57
23341;BME280;12239;53.404;23.492;2023-09-08T12:30:01;75943.26;;;-147.78;38.50
23341;BME280;12239;53.404;23.492;2023-09-08T12:32:52;75930.14;;;-147.78;37.66
23341;BME280;12239;53.404;23.492;2023-09-08T12:35:24;75919.08;;;-147.78;37.34
23341;BME280;12239;53.404;23.492;2023-09-08T12:37:56;75919.08;;;-147.78;37.51
23341;BME280;12239;53.404;23.492;2023-09-08T12:40:46;75916.61;;;-147.78;37.69
23341;BME280;12239;53.404;23.492;2023-09-08T12:43:16;75917.02;;;-147.78;37.55
23341;BME280;12239;53.404;23.492;2023-09-08T12:45:45;75918.66;;;-147.78;37.37
23341;BME280;12239;53.404;23.492;2023-09-08T12:48:15;75912.52;;;-147.78;38.07
23341;BME280;12239;53.404;23.492;2023-09-08T12:51:05;75896.93;;;-147.78;37.83
23341;BME280;12239;53.404;23.492;2023-09-08T12:53:34;75887.51;;;-147.78;36.96
23341;BME280;12239;53.404;23.492;2023-09-08T12:56:04;75882.18;;;-147.78;37.35
23341;BME280;12239;53.404;23.492;2023-09-08T12:58:36;75878.08;;;-147.78;36.83
23341;BME280;12239;53.404;23.492;2023-09-08T13:01:06;75874.39;;;-147.78;36.93
23341;BME280;12239;53.404;23.492;2023-09-08T13:03:35;75872.75;;;-147.78;36.91
23341;BME280;12239;53.404;23.492;2023-09-08T13:06:13;75875.20;;;-147.78;36.48
23341;BME280;12239;53.404;23.492;2023-09-08T13:08:46;75874.39;;;-147.78;36.89
23341;BME280;12239;53.404;23.492;2023-09-08T13:11:15;75870.30;;;-147.78;36.87
23341;BME280;12239;53.404;23.492;2023-09-08T13:13:48;75863.73;;;-147.78;36.79
23341;BME280;12239;53.404;23.492;2023-09-08T13:16:18;75855.94;;;-147.78;36.95
23341;BME280;12239;53.404;23.492;2023-09-08T13:18:47;75839.14;;;-147.78;36.58
23341;BME280;12239;53.404;23.492;2023-09-08T13:21:17;75830.92;;;-147.78;36.43
23341;BME280;12239;53.404;23.492;2023-09-08T13:23:47;75825.61;;;-147.78;35.64
23341;BME280;12239;53.404;23.492;2023-09-08T13:26:16;75830.52;;;-147.78;35.68
23341;BME280;12239;53.404;23.492;2023-09-08T13:28:49;75837.09;;;-147.78;35.53
23341;BME280;12239;53.404;23.492;2023-09-08T13:31:18;75835.45;;;-147.78;35.75
23341;BME280;12239;53.404;23.492;2023-09-08T13:33:53;75832.16;;;-147.78;35.67
23341;BME280;12239;53.404;23.492;2023-09-08T13:36:22;75830.52;;;-147.78;35.69
23341;BME280;12239;53.404;23.492;2023-09-08T13:38:55;75820.27;;;-147.78;35.35
23341;BME280;12239;53.404;23.492;2023-09-08T13:41:24;75812.08;;;-147.78;35.48
23341;BME280;12239;53.404;23.492;2023-09-08T13:44:14;75800.60;;;-147.78;35.37
23341;BME280;12239;53.404;23.492;2023-09-08T13:46:46;75794.05;;;-147.78;35.55
23341;BME280;12239;53.404;23.492;2023-09-08T13:49:19;75789.53;;;-147.78;34.28
23341;BME280;12239;53.404;23.492;2023-09-08T13:51:52;75776.01;;;-147.78;34.86
23341;BME280;12239;53.404;23.492;2023-09-08T13:54:24;75772.73;;;-147.78;34.56
23341;BME280;12239;53.404;23.492;2023-09-08T13:57:03;75767.81;;;-147.78;34.78
23341;BME280;12239;53.404;23.492;2023-09-08T13:59:42;75761.65;;;-147.78;34.96
23341;BME280;12239;53.404;23.492;2023-09-08T14:02:13;75760.02;;;-147.78;34.78
23341;BME280;12239;53.404;23.492;2023-09-08T14:04:45;75754.28;;;-147.78;35.03
23341;BME280;12239;53.404;23.492;2023-09-08T14:07:17;75749.36;;;-147.78;34.91
23341;BME280;12239;53.404;23.492;2023-09-08T14:09:58;75737.88;;;-147.78;35.02
23341;BME280;12239;53.404;23.492;2023-09-08T14:12:32;75733.38;;;-147.78;35.20
23341;BME280;12239;53.404;23.492;2023-09-08T14:15:02;75735.83;;;-147.78;35.33
23341;BME280;12239;53.404;23.492;2023-09-08T14:17:40;75737.06;;;-147.78;35.44
23341;BME280;12239;53.404;23.492;2023-09-08T14:20:12;75733.79;;;-147.78;35.37
23341;BME280;12239;53.404;23.492;2023-09-08T14:22:42;75724.77;;;-147.78;34.97
23341;BME280;12239;53.404;23.492;2023-09-08T14:25:12;75712.47;;;-147.78;35.23
23341;BME280;12239;53.404;23.492;2023-09-08T14:27:42;75705.91;;;-147.78;34.69
23341;BME280;12239;53.404;23.492;2023-09-08T14:30:11;75708.36;;;-147.78;34.79
23341;BME280;12239;53.404;23.492;2023-09-08T14:32:44;75706.32;;;-147.78;35.21
23341;BME280;12239;53.404;23.492;2023-09-08T14:35:14;75698.54;;;-147.78;35.30
23341;BME280;12239;53.404;23.492;2023-09-08T14:37:44;75697.30;;;-147.78;35.52
23341;BME280;12239;53.404;23.492;2023-09-08T14:40:15;75700.17;;;-147.78;35.55
23341;BME280;12239;53.404;23.492;2023-09-08T14:42:44;75700.98;;;-147.78;35.68
23341;BME280;12239;53.404;23.492;2023-09-08T14:45:14;75696.08;;;-147.78;35.91
23341;BME280;12239;53.404;23.492;2023-09-08T14:47:44;75696.08;;;-147.78;35.61
23341;BME280;12239;53.404;23.492;2023-09-08T14:50:16;75698.94;;;-147.78;35.74
23341;BME280;12239;53.404;23.492;2023-09-08T14:52:46;75695.66;;;-147.78;35.95
23341;BME280;12239;53.404;23.492;2023-09-08T14:55:16;75696.90;;;-147.78;35.86
23341;BME280;12239;53.404;23.492;2023-09-08T14:57:49;75690.74;;;-147.78;36.28
23341;BME280;12239;53.404;23.492;2023-09-08T15:00:19;75687.05;;;-147.78;35.95
23341;BME280;12239;53.404;23.492;2023-09-08T15:02:58;75691.56;;;-147.78;36.14
23341;BME280;12239;53.404;23.492;2023-09-08T15:05:30;75686.23;;;-147.78;35.82
23341;BME280;12239;53.404;23.492;2023-09-08T15:08:20;75642.78;;;-147.78;35.14
23341;BME280;12239;53.404;23.492;2023-09-08T15:10:54;75591.95;;;-147.78;34.65
23341;BME280;12239;53.404;23.492;2023-09-08T15:13:44;75544.00;;;-147.78;34.47
23341;BME280;12239;53.404;23.492;2023-09-08T15:16:16;75494.40;;;-147.78;34.12
23341;BME280;12239;53.404;23.492;2023-09-08T15:18:49;75443.16;;;-147.78;33.66
23341;BME280;12239;53.404;23.492;2023-09-08T15:21:25;75402.58;;;-147.78;33.39
23341;BME280;12239;53.404;23.492;2023-09-08T15:24:18;75389.88;;;-147.78;32.84
23341;BME280;12239;53.404;23.492;2023-09-08T15:26:52;75386.60;;;-147.78;32.65
23341;BME280;12239;53.404;23.492;2023-09-08T15:29:22;75380.45;;;-147.78;32.89
23341;BME280;12239;53.404;23.492;2023-09-08T15:31:54;75375.13;;;-147.78;32.57
23341;BME280;12239;53.404;23.492;2023-09-08T15:34:24;75368.97;;;-147.78;32.67
23341;BME280;12239;53.404;23.492;2023-09-08T15:36:56;75357.49;;;-147.78;32.18
23341;BME280;12239;53.404;23.492;2023-09-08T15:39:29;75366.10;;;-147.78;32.33
23341;BME280;12239;53.404;23.492;2023-09-08T15:41:59;75363.64;;;-147.78;32.17
23341;BME280;12239;53.404;23.492;2023-09-08T15:44:31;75349.71;;;-147.78;32.16
23341;BME280;12239;53.404;23.492;2023-09-08T15:47:01;75351.35;;;-147.78;32.01
23341;BME280;12239;53.404;23.492;2023-09-08T15:49:34;75369.80;;;-147.78;31.95
23341;BME280;12239;53.404;23.492;2023-09-08T15:52:03;75398.89;;;-147.78;32.26
23341;BME280;12239;53.404;23.492;2023-09-08T15:54:33;75423.08;;;-147.78;32.38
23341;BME280;12239;53.404;23.492;2023-09-08T15:57:03;75448.90;;;-147.78;32.67
23341;BME280;12239;53.404;23.492;2023-09-08T15:59:35;75460.79;;;-147.78;32.97
23341;BME280;12239;53.404;23.492;2023-09-08T16:02:06;75485.39;;;-147.78;33.04
23341;BME280;12239;53.404;23.492;2023-09-08T16:04:36;75520.64;;;-147.78;33.30
23341;BME280;12239;53.404;23.492;2023-09-08T16:07:25;75567.77;;;-147.78;33.71
23341;BME280;12239;53.404;23.492;2023-09-08T16:09:58;75580.07;;;-147.78;34.05
23341;BME280;12239;53.404;23.492;2023-09-08T16:12:31;75594.01;;;-147.78;34.22
23341;BME280;12239;53.404;23.492;2023-09-08T16:15:01;75611.22;;;-147.78;34.36
23341;BME280;12239;53.404;23.492;2023-09-08T16:17:34;75627.62;;;-147.78;34.61
23341;BME280;12239;53.404;23.492;2023-09-08T16:20:04;75651.39;;;-147.78;35.14
23341;BME280;12239;53.404;23.492;2023-09-08T16:22:34;75668.20;;;-147.78;35.35
23341;BME280;12239;53.404;23.492;2023-09-08T16:25:04;75690.73;;;-147.78;35.71
23341;BME280;12239;53.404;23.492;2023-09-08T16:27:34;75721.48;;;-147.78;36.04
23341;BME280;12239;53.404;23.492;2023-09-08T16:30:04;75753.05;;;-147.78;36.55
23341;BME280;12239;53.404;23.492;2023-09-08T16:32:34;75784.61;;;-147.78;37.02
23341;BME280;12239;53.404;23.492;2023-09-08T16:35:05;75819.88;;;-147.78;37.39
23341;BME280;12239;53.404;23.492;2023-09-08T16:37:34;75849.39;;;-147.78;38.02
23341;BME280;12239;53.404;23.492;2023-09-08T16:40:05;75876.44;;;-147.78;38.54
23341;BME280;12239;53.404;23.492;2023-09-08T16:42:35;75904.73;;;-147.78;39.06
23341;BME280;12239;53.404;23.492;2023-09-08T16:45:05;75927.68;;;-147.78;39.53
23341;BME280;12239;53.404;23.492;2023-09-08T16:47:35;75951.05;;;-147.78;39.95
23341;BME280;12239;53.404;23.492;2023-09-08T16:50:08;75971.95;;;-147.78;40.31
23341;BME280;12239;53.404;23.492;2023-09-08T16:52:38;75990.40;;;-147.78;40.56
23341;BME280;12239;53.404;23.492;2023-09-08T16:55:08;76004.34;;;-147.78;41.06
23341;BME280;12239;53.404;23.492;2023-09-08T16:57:39;76022.79;;;-147.78;41.39
23341;BME280;12239;53.404;23.492;2023-09-08T17:00:10;76044.11;;;-147.78;41.71
23341;BME280;12239;53.404;23.492;2023-09-08T17:02:44;76059.27;;;-147.78;42.08
23341;BME280;12239;53.404;23.492;2023-09-08T17:05:14;76075.27;;;-147.78;42.37
23341;BME280;12239;53.404;23.492;2023-09-08T17:07:45;76089.20;;;-147.78;42.76
23341;BME280;12239;53.404;23.492;2023-09-08T17:10:15;76101.50;;;-147.78;43.03
23341;BME280;12239;53.404;23.492;2023-09-08T17:12:44;76110.93;;;-147.78;43.27
23341;BME280;12239;53.404;23.492;2023-09-08T17:15:17;76119.53;;;-147.78;43.47
23341;BME280;12239;53.404;23.492;2023-09-08T17:17:47;76130.61;;;-147.78;43.71
23341;BME280;12239;53.404;23.492;2023-09-08T17:20:17;76138.80;;;-147.78;44.02
23341;BME280;12239;53.404;23.492;2023-09-08T17:22:46;76149.46;;;-147.78;44.15
23341;BME280;12239;53.404;23.492;2023-09-08T17:25:16;76159.71;;;-147.78;44.25
23341;BME280;12239;53.404;23.492;2023-09-08T17:28:05;76171.60;;;-147.78;44.58
23341;BME280;12239;53.404;23.492;2023-09-08T17:30:35;76180.62;;;-147.78;44.85
23341;BME280;12239;53.404;23.492;2023-09-08T17:33:05;76190.45;;;-147.78;45.03
23341;BME280;12239;53.404;23.492;2023-09-08T17:35:36;76199.07;;;-147.78;45.26
23341;BME280;12239;53.404;23.492;2023-09-08T17:38:05;76215.88;;;-147.78;45.72
23341;BME280;12239;53.404;23.492;2023-09-08T17:40:35;76229.41;;;-147.78;46.03
23341;BME280;12239;53.404;23.492;2023-09-08T17:43:07;76235.96;;;-147.78;46.31
23341;BME280;12239;53.404;23.492;2023-09-08T17:45:43;76243.76;;;-147.78;46.58
23341;BME280;12239;53.404;23.492;2023-09-08T17:48:32;76254.41;;;-147.78;46.81
23341;BME280;12239;53.404;23.492;2023-09-08T17:51:02;76265.48;;;-147.78;46.94
23341;BME280;12239;53.404;23.492;2023-09-08T17:53:35;76271.23;;;-147.78;47.15
23341;BME280;12239;53.404;23.492;2023-09-08T17:56:25;76282.29;;;-147.78;47.33
23341;BME280;12239;53.404;23.492;2023-09-08T17:58:55;76285.58;;;-147.78;47.55
23341;BME280;12239;53.404;23.492;2023-09-08T18:01:25;76292.55;;;-147.78;47.82
23341;BME280;12239;53.404;23.492;2023-09-08T18:04:11;76297.87;;;-147.78;48.00
23341;BME280;12239;53.404;23.492;2023-09-08T18:06:41;76303.61;;;-147.78;48.20
23341;BME280;12239;53.404;23.492;2023-09-08T18:09:11;76307.71;;;-147.78;48.23
23341;BME280;12239;53.404;23.492;2023-09-08T18:11:40;76310.16;;;-147.78;48.45
23341;BME280;12239;53.404;23.492;2023-09-08T18:14:13;76313.86;;;-147.78;48.68
23341;BME280;12239;53.404;23.492;2023-09-08T18:16:44;76322.47;;;-147.78;48.97
23341;BME280;12239;53.404;23.492;2023-09-08T18:19:13;76335.17;;;-147.78;49.25
23341;BME280;12239;53.404;23.492;2023-09-08T18:21:43;76343.79;;;-147.78;49.47
23341;BME280;12239;53.404;23.492;2023-09-08T18:24:12;76354.45;;;-147.78;49.90
23341;BME280;12239;53.404;23.492;2023-09-08T18:26:42;76363.46;;;-147.78;50.17
23341;BME280;12239;53.404;23.492;2023-09-08T18:29:12;76372.48;;;-147.78;50.38
23341;BME280;12239;53.404;23.492;2023-09-08T18:31:42;76379.05;;;-147.78;50.65
23341;BME280;12239;53.404;23.492;2023-09-08T18:34:14;76384.79;;;-147.78;50.98
23341;BME280;12239;53.404;23.492;2023-09-08T18:36:44;76392.16;;;-147.78;51.23
23341;BME280;12239;53.404;23.492;2023-09-08T18:39:34;76402.01;;;-147.78;51.52
23341;BME280;12239;53.404;23.492;2023-09-08T18:42:07;76406.92;;;-147.78;51.80
23341;BME280;12239;53.404;23.492;2023-09-08T18:44:40;76408.16;;;-147.78;51.83
23341;BME280;12239;53.404;23.492;2023-09-08T18:47:10;76409.80;;;-147.78;51.78
23341;BME280;12239;53.404;23.492;2023-09-08T18:49:42;76410.20;;;-147.78;51.87
23341;BME280;12239;53.404;23.492;2023-09-08T18:52:12;76411.85;;;-147.78;52.00
23341;BME280;12239;53.404;23.492;2023-09-08T18:54:42;76413.48;;;-147.78;52.02
23341;BME280;12239;53.404;23.492;2023-09-08T18:57:12;76412.67;;;-147.78;52.17
23341;BME280;12239;53.404;23.492;2023-09-08T18:59:41;76418.41;;;-147.78;52.28
23341;BME280;12239;53.404;23.492;2023-09-08T19:02:13;76423.73;;;-147.78;52.46
23341;BME280;12239;53.404;23.492;2023-09-08T19:04:43;76435.21;;;-147.78;52.62
23341;BME280;12239;53.404;23.492;2023-09-08T19:07:13;76438.91;;;-147.78;52.80
23341;BME280;12239;53.404;23.492;2023-09-08T19:09:42;76443.00;;;-147.78;52.98
23341;BME280;12239;53.404;23.492;2023-09-08T19:12:15;76446.70;;;-147.78;53.21
23341;BME280;12239;53.404;23.492;2023-09-08T19:14:44;76452.44;;;-147.78;53.44
23341;BME280;12239;53.404;23.492;2023-09-08T19:17:15;76458.59;;;-147.78;53.61
23341;BME280;12239;53.404;23.492;2023-09-08T19:19:45;76459.81;;;-147.78;54.24
23341;BME280;12239;53.404;23.492;2023-09-08T19:22:14;76474.98;;;-147.78;54.95
23341;BME280;12239;53.404;23.492;2023-09-08T19:24:44;76487.70;;;-147.78;55.20
23341;BME280;12239;53.404;23.492;2023-09-08T19:27:13;76503.27;;;-147.78;55.42
23341;BME280;12239;53.404;23.492;2023-09-08T19:29:43;76518.45;;;-147.78;55.91
23341;BME280;12239;53.404;23.492;2023-09-08T19:32:16;76527.46;;;-147.78;56.30
23341;BME280;12239;53.404;23.492;2023-09-08T19:34:45;76532.79;;;-147.78;56.45
23341;BME280;12239;53.404;23.492;2023-09-08T19:37:15;76538.13;;;-147.78;56.88
23341;BME280;12239;53.404;23.492;2023-09-08T19:39:45;76545.51;;;-147.78;57.19
23341;BME280;12239;53.404;23.492;2023-09-08T19:42:14;76549.60;;;-147.78;57.25
23341;BME280;12239;53.404;23.492;2023-09-08T19:44:45;76557.80;;;-147.78;57.45
23341;BME280;12239;53.404;23.492;2023-09-08T19:47:15;76565.19;;;-147.78;57.78
23341;BME280;12239;53.404;23.492;2023-09-08T19:49:47;76569.29;;;-147.78;58.11
23341;BME280;12239;53.404;23.492;2023-09-08T19:52:17;76570.92;;;-147.78;58.36
23341;BME280;12239;53.404;23.492;2023-09-08T19:54:47;76570.11;;;-147.78;58.65
23341;BME280;12239;53.404;23.492;2023-09-08T19:57:16;76573.39;;;-147.78;58.98
23341;BME280;12239;53.404;23.492;2023-09-08T19:59:47;76574.61;;;-147.78;59.03
23341;BME280;12239;53.404;23.492;2023-09-08T20:02:22;76579.13;;;-147.78;59.24
23341;BME280;12239;53.404;23.492;2023-09-08T20:04:52;76578.71;;;-147.78;59.38
23341;BME280;12239;53.404;23.492;2023-09-08T20:07:22;76583.23;;;-147.78;59.48
23341;BME280;12239;53.404;23.492;2023-09-08T20:09:53;76586.10;;;-147.78;59.73
23341;BME280;12239;53.404;23.492;2023-09-08T20:12:25;76588.55;;;-147.78;60.06
23341;BME280;12239;53.404;23.492;2023-09-08T20:14:57;76597.58;;;-147.78;60.44
23341;BME280;12239;53.404;23.492;2023-09-08T20:17:30;76616.85;;;-147.78;61.63
23341;BME280;12239;53.404;23.492;2023-09-08T20:19:59;76638.17;;;-147.78;62.72
23341;BME280;12239;53.404;23.492;2023-09-08T20:22:29;76659.08;;;-147.78;63.73
23341;BME280;12239;53.404;23.492;2023-09-08T20:24:59;76673.83;;;-147.78;64.81
23341;BME280;12239;53.404;23.492;2023-09-08T20:27:28;76683.67;;;-147.78;65.62
23341;BME280;12239;53.404;23.492;2023-09-08T20:30:06;76698.44;;;-147.78;66.41
23341;BME280;12239;53.404;23.492;2023-09-08T20:32:36;76709.91;;;-147.78;67.24
23341;BME280;12239;53.404;23.492;2023-09-08T20:35:08;76715.24;;;-147.78;68.04
23341;BME280;12239;53.404;23.492;2023-09-08T20:37:38;76722.23;;;-147.78;68.53
23341;BME280;12239;53.404;23.492;2023-09-08T20:40:08;76724.67;;;-147.78;68.65
23341;BME280;12239;53.404;23.492;2023-09-08T20:42:38;76728.37;;;-147.78;68.66
23341;BME280;12239;53.404;23.492;2023-09-08T20:45:09;76726.32;;;-147.78;68.70
23341;BME280;12239;53.404;23.492;2023-09-08T20:47:42;76727.95;;;-147.78;68.72
23341;BME280;12239;53.404;23.492;2023-09-08T20:50:32;76727.95;;;-147.78;69.13
23341;BME280;12239;53.404;23.492;2023-09-08T20:53:05;76740.66;;;-147.78;69.74
23341;BME280;12239;53.404;23.492;2023-09-08T20:55:35;76753.79;;;-147.78;70.34
23341;BME280;12239;53.404;23.492;2023-09-08T20:58:07;76770.20;;;-147.78;71.37
23341;BME280;12239;53.404;23.492;2023-09-08T21:00:57;76787.41;;;-147.78;71.97
23341;BME280;12239;53.404;23.492;2023-09-08T21:03:35;76796.84;;;-147.78;72.56
23341;BME280;12239;53.404;23.492;2023-09-08T21:06:05;76797.66;;;-147.78;73.15
23341;BME280;12239;53.404;23.492;2023-09-08T21:08:35;76802.17;;;-147.78;73.56
23341;BME280;12239;53.404;23.492;2023-09-08T21:11:05;76803.41;;;-147.78;73.49
23341;BME280;12239;53.404;23.492;2023-09-08T21:13:35;76802.99;;;-147.78;73.54
23341;BME280;12239;53.404;23.492;2023-09-08T21:16:08;76808.33;;;-147.78;73.49
23341;BME280;12239;53.404;23.492;2023-09-08T21:18:37;76823.09;;;-147.78;73.40
23341;BME280;12239;53.404;23.492;2023-09-08T21:21:07;76835.39;;;-147.78;73.31
23341;BME280;12239;53.404;23.492;2023-09-08T21:23:39;76847.27;;;-147.78;74.00
23341;BME280;12239;53.404;23.492;2023-09-08T21:26:09;76860.80;;;-147.78;74.39
23341;BME280;12239;53.404;23.492;2023-09-08T21:28:39;76873.11;;;-147.78;75.37
23341;BME280;12239;53.404;23.492;2023-09-08T21:31:09;76881.72;;;-147.78;76.74
23341;BME280;12239;53.404;23.492;2023-09-08T21:33:58;76884.18;;;-147.78;78.18
23341;BME280;12239;53.404;23.492;2023-09-08T21:36:30;76890.34;;;-147.78;78.95
23341;BME280;12239;53.404;23.492;2023-09-08T21:39:00;76893.20;;;-147.78;79.86
23341;BME280;12239;53.404;23.492;2023-09-08T21:41:50;76898.94;;;-147.78;80.82
23341;BME280;12239;53.404;23.492;2023-09-08T21:44:22;76907.55;;;-147.78;81.71
23341;BME280;12239;53.404;23.492;2023-09-08T21:46:52;76912.88;;;-147.78;82.48
23341;BME280;12239;53.404;23.492;2023-09-08T21:49:22;76920.67;;;-147.78;83.22
23341;BME280;12239;53.404;23.492;2023-09-08T21:51:51;76923.55;;;-147.78;83.55
23341;BME280;12239;53.404;23.492;2023-09-08T21:54:24;76924.36;;;-147.78;83.26
23341;BME280;12239;53.404;23.492;2023-09-08T21:56:53;76930.10;;;-147.78;83.98
23341;BME280;12239;53.404;23.492;2023-09-08T21:59:23;76930.52;;;-147.78;84.42
23341;BME280;12239;53.404;23.492;2023-09-08T22:01:52;76932.15;;;-147.78;84.77
23341;BME280;12239;53.404;23.492;2023-09-08T22:04:26;76939.13;;;-147.78;85.47
23341;BME280;12239;53.404;23.492;2023-09-08T22:06:56;76943.64;;;-147.78;86.26
23341;BME280;12239;53.404;23.492;2023-09-08T22:09:26;76950.20;;;-147.78;87.16
23341;BME280;12239;53.404;23.492;2023-09-08T22:11:55;76952.25;;;-147.78;87.78
23341;BME280;12239;53.404;23.492;2023-09-08T22:14:25;76954.30;;;-147.78;88.07
23341;BME280;12239;53.404;23.492;2023-09-08T22:16:58;76953.89;;;-147.78;89.24
23341;BME280;12239;53.404;23.492;2023-09-08T22:19:28;76956.76;;;-147.78;90.40
23341;BME280;12239;53.404;23.492;2023-09-08T22:21:57;76960.03;;;-147.78;91.16
23341;BME280;12239;53.404;23.492;2023-09-08T22:24:30;76960.04;;;-147.78;92.56
23341;BME280;12239;53.404;23.492;2023-09-08T22:27:03;76965.78;;;-147.78;93.56
23341;BME280;12239;53.404;23.492;2023-09-08T22:29:36;76970.70;;;-147.78;95.35
23341;BME280;12239;53.404;23.492;2023-09-08T22:32:06;76972.74;;;-147.78;96.09
23341;BME280;12239;53.404;23.492;2023-09-08T22:34:36;76971.92;;;-147.78;96.89
23341;BME280;12239;53.404;23.492;2023-09-08T22:37:06;76973.16;;;-147.78;97.80
23341;BME280;12239;53.404;23.492;2023-09-08T22:39:55;76976.85;;;-147.78;97.15
23341;BME280;12239;53.404;23.492;2023-09-08T22:42:45;76983.41;;;-147.78;96.84
23341;BME280;12239;53.404;23.492;2023-09-08T22:45:17;76989.15;;;-147.78;97.75
23341;BME280;12239;53.404;23.492;2023-09-08T22:48:05;76998.98;;;-147.78;98.38
23341;BME280;12239;53.404;23.492;2023-09-08T22:50:34;77006.79;;;-147.78;99.59
23341;BME280;12239;53.404;23.492;2023-09-08T22:53:08;77010.88;;;-147.78;100.00
23341;BME280;12239;53.404;23.492;2023-09-08T22:55:38;77017.04;;;-147.78;100.00
23341;BME280;12239;53.404;23.492;2023-09-08T22:58:12;77019.08;;;-147.78;100.00
23341;BME280;12239;53.404;23.492;2023-09-08T23:00:44;77021.13;;;-147.78;100.00
23341;BME280;12239;53.404;23.492;2023-09-08T23:03:14;77024.00;;;-147.78;100.00
23341;BME280;12239;53.404;23.492;2023-09-08T23:05:44;77021.13;;;-147.78;100.00
23341;BME280;12239;53.404;23.492;2023-09-08T23:08:17;77024.83;;;-147.78;100.00
23341;BME280;12239;53.404;23.492;2023-09-08T23:10:51;77023.59;;;-147.78;100.00
23341;BME280;12239;53.404;23.492;2023-09-08T23:13:23;77025.65;;;-147.78;100.00